Aberdeen, SD

7:12 PM CDT on August 21, 2014 (GMT -0500)
Simmons | Change Station
CLOSE
Current Station
Personal Weather Station
Location: Aberdeen, SD
Elevation: 1312 ft
Nearby Weather Stations

Elev 1312 ft 45.45 °N, 98.49 °W | Updated 11 minutes ago

Clear
Clear
85.8 °F
Feels Like 91 °F
N
5.8
Wind Variable Wind from West

Today
High -- | Low -- °F
--% Chance of Precip.
Yesterday
High -- | Low -- °F
Precip. -- in
6:42 AM 8:31 PM
Waning Crescent, 11% visible
Pressure 29.85 in
Visibility 10.0 miles
Clouds Clear
Heat Index 91 °F
Dew Point 70 °F
Humidity 60%
Rainfall 0.90 in
Snow Depth Not available.
UV 1 out of 12
Pollen 7.70 out of 12
Air Quality Not available.
Flu Activity Not available.
METAR KABR 212353Z AUTO 35009KT 10SM CLR 27/19 A2987 RMK AO2 SLP107 T02670189 10294 20256 53016

More Conditions Fewer Conditions

Pressure 29.85 in
Visibility 10.0 miles
Clouds Clear
Heat Index 91 °F
Dew Point 70 °F
Humidity 60%
Rainfall 0.90 in
Snow Depth Not available.
UV 1 out of 12
Pollen 7.70 out of 12
Air Quality Not available.
Flu Activity Not available.
METAR KABR 212353Z AUTO 35009KT 10SM CLR 27/19 A2987 RMK AO2 SLP107 T02670189 10294 20256 53016

More Conditions Fewer Conditions

10-Day Weather Forecast

Almanac

Astronomy

Aug. 21, 2014 Rise Set
Actual Time 6:42 AM CDT 8:31 PM CDT
Civil Twilight 6:10 AM CDT 9:02 PM CDT
Nautical Twilight 5:31 AM CDT 9:41 PM CDT
Astronomical Twilight 4:49 AM CDT 10:23 PM CDT
Moon 3:08 AM CDT (8/21) 6:05 PM CDT (8/21)
Length of Visible Light 14h 52m
Length of Day
13h 49m
Tomorrow will be 2m 58s shorter.
Waning Crescent, 11% of the Moon is Illuminated
Today
Waning Crescent
Aug 25
New
Sep 2
First Quarter
Sep 8
Full
Sep 15
Last Quarter

Today's Extremes

State Highs State Lows

Community

WunderPhotos

Upload Photos

1,746,065 photos uploaded!

Nearby

Snow Depth

Station Depth Elevation
Blind Park 0 in 6890 ft

Earthquake Activity

City Distance Mag. Time & Date
No recent earthquake activity has been reported nearby.
Minimum magnitude displayed is 2.5.

Coastal Water Temperatures

Place Temperature
No Stations Reporting

Nearby Weather Stations